sensor_id;sensor_type;location;lat;lon;timestamp;pressure;altitude;pressure_sealevel;temperature;humidity
25510;BME280;13413;52.336;21.200;2023-06-26T00:01:47;100429.75;;;19.21;61.17
25510;BME280;13413;52.336;21.200;2023-06-26T00:04:47;100429.27;;;19.25;61.31
25510;BME280;13413;52.336;21.200;2023-06-26T00:07:42;100428.86;;;19.35;61.34
25510;BME280;13413;52.336;21.200;2023-06-26T00:12:16;100423.27;;;19.45;61.24
25510;BME280;13413;52.336;21.200;2023-06-26T00:15:10;100425.73;;;19.26;61.34
25510;BME280;13413;52.336;21.200;2023-06-26T00:18:04;100426.27;;;19.24;61.58
25510;BME280;13413;52.336;21.200;2023-06-26T00:20:58;100419.48;;;19.13;61.64
25510;BME280;13413;52.336;21.200;2023-06-26T00:26:48;100419.98;;;19.06;61.99
25510;BME280;13413;52.336;21.200;2023-06-26T00:29:49;100418.69;;;19.08;62.16
25510;BME280;13413;52.336;21.200;2023-06-26T00:32:43;100418.67;;;18.91;62.32
25510;BME280;13413;52.336;21.200;2023-06-26T00:41:01;100424.21;;;18.54;63.17
25510;BME280;13413;52.336;21.200;2023-06-26T00:43:58;100421.34;;;18.59;63.32
25510;BME280;13413;52.336;21.200;2023-06-26T00:46:52;100420.10;;;18.51;63.46
25510;BME280;13413;52.336;21.200;2023-06-26T00:55:30;100418.94;;;18.48;63.90
25510;BME280;13413;52.336;21.200;2023-06-26T00:58:24;100420.83;;;18.54;63.80
25510;BME280;13413;52.336;21.200;2023-06-26T01:01:24;100415.48;;;18.56;63.81
25510;BME280;13413;52.336;21.200;2023-06-26T01:04:17;100412.26;;;18.51;63.81
25510;BME280;13413;52.336;21.200;2023-06-26T01:07:10;100412.98;;;18.30;64.02
25510;BME280;13413;52.336;21.200;2023-06-26T01:10:10;100410.20;;;18.27;64.20
25510;BME280;13413;52.336;21.200;2023-06-26T01:13:03;100408.27;;;18.38;64.04
25510;BME280;13413;52.336;21.200;2023-06-26T01:15:57;100405.00;;;18.41;63.97
25510;BME280;13413;52.336;21.200;2023-06-26T01:18:57;100402.88;;;18.43;63.93
25510;BME280;13413;52.336;21.200;2023-06-26T01:22:02;100401.85;;;18.45;63.89
25510;BME280;13413;52.336;21.200;2023-06-26T01:28:17;100396.84;;;18.46;63.74
25510;BME280;13413;52.336;21.200;2023-06-26T01:31:20;100395.77;;;18.46;63.75
25510;BME280;13413;52.336;21.200;2023-06-26T01:34:19;100395.27;;;18.47;63.74
25510;BME280;13413;52.336;21.200;2023-06-26T01:37:12;100393.91;;;18.45;63.73
25510;BME280;13413;52.336;21.200;2023-06-26T01:40:12;100398.04;;;18.32;63.74
25510;BME280;13413;52.336;21.200;2023-06-26T01:43:09;100395.17;;;18.02;64.12
25510;BME280;13413;52.336;21.200;2023-06-26T01:46:11;100390.20;;;17.78;64.48
25510;BME280;13413;52.336;21.200;2023-06-26T01:49:21;100391.61;;;17.65;64.91
25510;BME280;13413;52.336;21.200;2023-06-26T01:52:21;100389.27;;;17.56;65.07
25510;BME280;13413;52.336;21.200;2023-06-26T01:56:48;100385.74;;;17.71;65.03
25510;BME280;13413;52.336;21.200;2023-06-26T01:59:43;100384.86;;;17.84;64.92
25510;BME280;13413;52.336;21.200;2023-06-26T02:02:42;100380.73;;;17.93;64.79
25510;BME280;13413;52.336;21.200;2023-06-26T02:05:43;100380.11;;;18.03;64.68
25510;BME280;13413;52.336;21.200;2023-06-26T02:08:37;100382.86;;;18.10;64.46
25510;BME280;13413;52.336;21.200;2023-06-26T02:11:31;100382.46;;;18.04;64.37
25510;BME280;13413;52.336;21.200;2023-06-26T02:14:32;100383.86;;;17.90;64.52
25510;BME280;13413;52.336;21.200;2023-06-26T02:17:26;100379.33;;;17.79;64.69
25510;BME280;13413;52.336;21.200;2023-06-26T02:20:20;100386.66;;;17.82;64.89
25510;BME280;13413;52.336;21.200;2023-06-26T02:23:17;100378.70;;;17.85;64.98
25510;BME280;13413;52.336;21.200;2023-06-26T02:26:11;100372.96;;;17.73;64.98
25510;BME280;13413;52.336;21.200;2023-06-26T02:31:35;100375.70;;;17.76;65.13
25510;BME280;13413;52.336;21.200;2023-06-26T02:34:28;100375.02;;;17.83;65.12
25510;BME280;13413;52.336;21.200;2023-06-26T02:37:23;100373.17;;;17.76;65.07
25510;BME280;13413;52.336;21.200;2023-06-26T02:40:23;100370.48;;;17.56;65.36
25510;BME280;13413;52.336;21.200;2023-06-26T02:43:19;100368.83;;;17.62;65.58
25510;BME280;13413;52.336;21.200;2023-06-26T02:46:21;100369.79;;;17.70;65.60
25510;BME280;13413;52.336;21.200;2023-06-26T02:49:14;100366.50;;;17.58;65.47
25510;BME280;13413;52.336;21.200;2023-06-26T02:52:09;100367.70;;;17.41;65.80
25510;BME280;13413;52.336;21.200;2023-06-26T02:55:03;100367.41;;;17.33;66.03
25510;BME280;13413;52.336;21.200;2023-06-26T02:57:57;100368.95;;;17.30;66.10
25510;BME280;13413;52.336;21.200;2023-06-26T03:00:58;100368.85;;;17.42;66.23
25510;BME280;13413;52.336;21.200;2023-06-26T03:03:52;100366.73;;;17.48;65.99
25510;BME280;13413;52.336;21.200;2023-06-26T03:06:46;100368.55;;;17.44;66.04
25510;BME280;13413;52.336;21.200;2023-06-26T03:09:41;100368.48;;;17.38;66.00
25510;BME280;13413;52.336;21.200;2023-06-26T03:12:35;100371.13;;;17.27;66.17
25510;BME280;13413;52.336;21.200;2023-06-26T03:16:58;100369.49;;;17.14;66.41
25510;BME280;13413;52.336;21.200;2023-06-26T03:19:52;100371.89;;;17.06;66.66
25510;BME280;13413;52.336;21.200;2023-06-26T03:22:46;100365.04;;;17.08;66.71
25510;BME280;13413;52.336;21.200;2023-06-26T03:25:47;100370.72;;;17.20;66.74
25510;BME280;13413;52.336;21.200;2023-06-26T03:28:41;100368.36;;;17.32;66.66
25510;BME280;13413;52.336;21.200;2023-06-26T03:31:35;100366.06;;;17.45;66.69
25510;BME280;13413;52.336;21.200;2023-06-26T03:34:36;100363.13;;;17.55;66.62
25510;BME280;13413;52.336;21.200;2023-06-26T03:37:30;100372.42;;;17.50;66.71
25510;BME280;13413;52.336;21.200;2023-06-26T03:41:52;100367.16;;;17.56;66.90
25510;BME280;13413;52.336;21.200;2023-06-26T03:44:46;100366.48;;;17.55;66.97
25510;BME280;13413;52.336;21.200;2023-06-26T03:47:40;100362.49;;;17.56;67.15
25510;BME280;13413;52.336;21.200;2023-06-26T03:50:35;100364.99;;;17.53;67.09
25510;BME280;13413;52.336;21.200;2023-06-26T03:53:28;100360.72;;;17.51;67.23
25510;BME280;13413;52.336;21.200;2023-06-26T03:56:29;100363.40;;;17.51;67.40
25510;BME280;13413;52.336;21.200;2023-06-26T03:59:24;100367.25;;;17.55;67.50
25510;BME280;13413;52.336;21.200;2023-06-26T04:02:17;100365.18;;;17.62;67.58
25510;BME280;13413;52.336;21.200;2023-06-26T04:10:37;100372.71;;;17.85;67.72
25510;BME280;13413;52.336;21.200;2023-06-26T04:13:30;100372.35;;;17.96;67.93
25510;BME280;13413;52.336;21.200;2023-06-26T04:16:31;100374.32;;;18.05;67.76
25510;BME280;13413;52.336;21.200;2023-06-26T04:19:25;100378.73;;;18.10;67.50
25510;BME280;13413;52.336;21.200;2023-06-26T04:22:19;100374.04;;;18.15;67.32
25510;BME280;13413;52.336;21.200;2023-06-26T04:25:20;100375.83;;;18.27;67.32
25510;BME280;13413;52.336;21.200;2023-06-26T04:28:14;100378.38;;;18.43;67.11
25510;BME280;13413;52.336;21.200;2023-06-26T04:31:15;100379.98;;;18.58;66.82
25510;BME280;13413;52.336;21.200;2023-06-26T04:34:16;100378.30;;;18.70;66.56
25510;BME280;13413;52.336;21.200;2023-06-26T04:37:11;100376.98;;;18.83;66.55
25510;BME280;13413;52.336;21.200;2023-06-26T04:41:34;100378.98;;;19.13;66.53
25510;BME280;13413;52.336;21.200;2023-06-26T04:44:28;100377.59;;;19.32;66.27
25510;BME280;13413;52.336;21.200;2023-06-26T04:47:22;100375.58;;;19.55;66.07
25510;BME280;13413;52.336;21.200;2023-06-26T04:50:23;100377.73;;;19.76;66.14
25510;BME280;13413;52.336;21.200;2023-06-26T04:53:17;100376.54;;;19.94;65.82
25510;BME280;13413;52.336;21.200;2023-06-26T04:56:18;100378.31;;;20.09;65.53
25510;BME280;13413;52.336;21.200;2023-06-26T04:59:19;100379.61;;;20.15;65.18
25510;BME280;13413;52.336;21.200;2023-06-26T05:02:13;100382.33;;;20.11;64.88
25510;BME280;13413;52.336;21.200;2023-06-26T05:05:13;100383.34;;;20.08;64.97
25510;BME280;13413;52.336;21.200;2023-06-26T05:08:18;100386.70;;;20.12;64.93
25510;BME280;13413;52.336;21.200;2023-06-26T05:11:12;100382.38;;;20.23;65.04
25510;BME280;13413;52.336;21.200;2023-06-26T05:14:07;100380.39;;;20.41;64.45
25510;BME280;13413;52.336;21.200;2023-06-26T05:17:01;100381.79;;;20.43;63.75
25510;BME280;13413;52.336;21.200;2023-06-26T05:20:02;100379.21;;;20.46;63.74
25510;BME280;13413;52.336;21.200;2023-06-26T05:22:55;100380.29;;;20.57;63.94
25510;BME280;13413;52.336;21.200;2023-06-26T05:35:11;100376.38;;;21.06;63.28
25510;BME280;13413;52.336;21.200;2023-06-26T05:38:06;100372.20;;;21.13;63.24
25510;BME280;13413;52.336;21.200;2023-06-26T05:41:02;100368.16;;;21.22;63.34
25510;BME280;13413;52.336;21.200;2023-06-26T05:43:56;100371.55;;;21.35;63.17
25510;BME280;13413;52.336;21.200;2023-06-26T05:46:49;100368.11;;;21.43;62.73
25510;BME280;13413;52.336;21.200;2023-06-26T05:49:44;100361.36;;;21.50;62.51
25510;BME280;13413;52.336;21.200;2023-06-26T05:52:38;100360.54;;;21.59;62.53
25510;BME280;13413;52.336;21.200;2023-06-26T05:55:41;100361.04;;;21.64;62.41
25510;BME280;13413;52.336;21.200;2023-06-26T05:58:36;100351.18;;;21.72;62.37
25510;BME280;13413;52.336;21.200;2023-06-26T06:01:29;100354.10;;;21.91;62.27
25510;BME280;13413;52.336;21.200;2023-06-26T06:04:30;100355.41;;;22.04;61.86
25510;BME280;13413;52.336;21.200;2023-06-26T06:07:25;100354.36;;;22.14;61.51
25510;BME280;13413;52.336;21.200;2023-06-26T06:10:18;100354.81;;;22.25;61.16
25510;BME280;13413;52.336;21.200;2023-06-26T06:13:13;100353.95;;;22.38;61.46
25510;BME280;13413;52.336;21.200;2023-06-26T06:16:07;100350.29;;;22.55;60.99
25510;BME280;13413;52.336;21.200;2023-06-26T06:19:00;100351.55;;;22.66;60.70
25510;BME280;13413;52.336;21.200;2023-06-26T06:28:05;100346.15;;;23.15;60.26
25510;BME280;13413;52.336;21.200;2023-06-26T06:31:00;100346.07;;;23.26;59.57
25510;BME280;13413;52.336;21.200;2023-06-26T06:33:53;100347.00;;;23.35;58.91
25510;BME280;13413;52.336;21.200;2023-06-26T06:36:48;100342.79;;;23.53;59.10
25510;BME280;13413;52.336;21.200;2023-06-26T06:39:41;100345.12;;;23.73;58.52
25510;BME280;13413;52.336;21.200;2023-06-26T06:42:42;100339.38;;;23.84;57.68
25510;BME280;13413;52.336;21.200;2023-06-26T06:45:44;100339.39;;;23.87;57.15
25510;BME280;13413;52.336;21.200;2023-06-26T06:48:38;100337.30;;;23.93;56.88
25510;BME280;13413;52.336;21.200;2023-06-26T06:51:39;100335.20;;;24.04;56.60
25510;BME280;13413;52.336;21.200;2023-06-26T06:54:33;100334.00;;;24.21;55.62
25510;BME280;13413;52.336;21.200;2023-06-26T06:57:44;100339.46;;;24.35;55.47
25510;BME280;13413;52.336;21.200;2023-06-26T07:00:38;100337.43;;;24.42;54.95
25510;BME280;13413;52.336;21.200;2023-06-26T07:03:33;100336.27;;;24.57;54.96
25510;BME280;13413;52.336;21.200;2023-06-26T07:06:34;100334.34;;;24.72;54.38
25510;BME280;13413;52.336;21.200;2023-06-26T07:09:34;100337.05;;;24.92;53.57
25510;BME280;13413;52.336;21.200;2023-06-26T07:12:28;100336.52;;;25.08;52.87
25510;BME280;13413;52.336;21.200;2023-06-26T07:15:23;100338.76;;;25.07;51.80
25510;BME280;13413;52.336;21.200;2023-06-26T07:18:17;100335.38;;;25.19;51.51
25510;BME280;13413;52.336;21.200;2023-06-26T07:21:19;100333.52;;;25.35;50.76
25510;BME280;13413;52.336;21.200;2023-06-26T07:24:13;100330.11;;;25.42;50.17
25510;BME280;13413;52.336;21.200;2023-06-26T07:27:08;100327.48;;;25.47;50.50
25510;BME280;13413;52.336;21.200;2023-06-26T07:30:11;100329.50;;;25.64;50.34
25510;BME280;13413;52.336;21.200;2023-06-26T07:33:06;100329.02;;;25.59;50.16
25510;BME280;13413;52.336;21.200;2023-06-26T07:36:34;100325.06;;;25.72;50.65
25510;BME280;13413;52.336;21.200;2023-06-26T07:39:27;100327.89;;;25.94;49.74
25510;BME280;13413;52.336;21.200;2023-06-26T07:42:20;100323.01;;;26.04;49.31
25510;BME280;13413;52.336;21.200;2023-06-26T07:45:15;100326.77;;;26.15;48.22
25510;BME280;13413;52.336;21.200;2023-06-26T07:48:07;100327.72;;;26.24;48.19
25510;BME280;13413;52.336;21.200;2023-06-26T07:51:06;100329.83;;;26.40;47.69
25510;BME280;13413;52.336;21.200;2023-06-26T07:54:06;100324.09;;;26.45;47.42
25510;BME280;13413;52.336;21.200;2023-06-26T07:57:00;100319.98;;;26.47;47.35
25510;BME280;13413;52.336;21.200;2023-06-26T07:59:53;100320.17;;;26.61;47.31
25510;BME280;13413;52.336;21.200;2023-06-26T08:02:46;100322.38;;;26.74;46.95
25510;BME280;13413;52.336;21.200;2023-06-26T08:05:46;100323.80;;;26.80;46.80
25510;BME280;13413;52.336;21.200;2023-06-26T08:09:07;100317.02;;;26.88;46.64
25510;BME280;13413;52.336;21.200;2023-06-26T08:12:00;100320.35;;;26.95;45.89
25510;BME280;13413;52.336;21.200;2023-06-26T08:15:00;100324.52;;;26.89;44.75
25510;BME280;13413;52.336;21.200;2023-06-26T08:17:53;100319.80;;;26.94;44.00
25510;BME280;13413;52.336;21.200;2023-06-26T08:20:46;100320.98;;;27.09;44.08
25510;BME280;13413;52.336;21.200;2023-06-26T08:23:46;100320.78;;;27.14;43.89
25510;BME280;13413;52.336;21.200;2023-06-26T08:26:46;100319.77;;;27.17;43.38
25510;BME280;13413;52.336;21.200;2023-06-26T08:29:46;100324.20;;;27.15;43.03
25510;BME280;13413;52.336;21.200;2023-06-26T08:32:39;100318.35;;;27.24;42.65
25510;BME280;13413;52.336;21.200;2023-06-26T08:35:32;100313.65;;;27.19;42.27
25510;BME280;13413;52.336;21.200;2023-06-26T08:38:25;100313.97;;;27.32;41.29
25510;BME280;13413;52.336;21.200;2023-06-26T08:41:24;100308.83;;;27.39;41.45
25510;BME280;13413;52.336;21.200;2023-06-26T08:44:24;100313.60;;;27.66;41.51
25510;BME280;13413;52.336;21.200;2023-06-26T08:47:19;100309.31;;;27.88;41.15
25510;BME280;13413;52.336;21.200;2023-06-26T08:50:34;100306.92;;;28.14;40.62
25510;BME280;13413;52.336;21.200;2023-06-26T08:53:33;100305.05;;;28.29;40.55
25510;BME280;13413;52.336;21.200;2023-06-26T08:56:32;100308.91;;;28.29;40.60
25510;BME280;13413;52.336;21.200;2023-06-26T08:59:25;100309.08;;;28.11;40.16
25510;BME280;13413;52.336;21.200;2023-06-26T09:02:18;100309.91;;;27.96;40.48
25510;BME280;13413;52.336;21.200;2023-06-26T09:05:12;100310.17;;;27.85;40.32
25510;BME280;13413;52.336;21.200;2023-06-26T09:08:04;100307.08;;;27.68;40.21
25510;BME280;13413;52.336;21.200;2023-06-26T09:16:26;100300.27;;;27.58;39.62
25510;BME280;13413;52.336;21.200;2023-06-26T09:19:21;100296.61;;;27.87;39.68
25510;BME280;13413;52.336;21.200;2023-06-26T09:22:15;100299.05;;;28.26;39.09
25510;BME280;13413;52.336;21.200;2023-06-26T09:25:11;100296.17;;;28.66;38.72
25510;BME280;13413;52.336;21.200;2023-06-26T09:28:06;100295.33;;;28.95;37.79
25510;BME280;13413;52.336;21.200;2023-06-26T09:31:03;100293.48;;;29.15;37.43
25510;BME280;13413;52.336;21.200;2023-06-26T09:33:59;100287.13;;;29.28;37.09
25510;BME280;13413;52.336;21.200;2023-06-26T09:36:54;100286.03;;;29.52;36.81
25510;BME280;13413;52.336;21.200;2023-06-26T09:39:56;100289.13;;;29.82;36.57
25510;BME280;13413;52.336;21.200;2023-06-26T09:42:50;100286.50;;;30.08;36.25
25510;BME280;13413;52.336;21.200;2023-06-26T09:45:43;100281.02;;;30.23;35.97
25510;BME280;13413;52.336;21.200;2023-06-26T09:48:45;100282.30;;;29.95;35.40
25510;BME280;13413;52.336;21.200;2023-06-26T09:51:46;100281.97;;;29.75;35.73
25510;BME280;13413;52.336;21.200;2023-06-26T09:54:49;100282.35;;;29.81;35.65
25510;BME280;13413;52.336;21.200;2023-06-26T10:01:50;100281.19;;;30.24;35.32
25510;BME280;13413;52.336;21.200;2023-06-26T10:04:52;100278.56;;;30.44;35.09
25510;BME280;13413;52.336;21.200;2023-06-26T10:07:46;100276.52;;;30.66;35.31
25510;BME280;13413;52.336;21.200;2023-06-26T10:10:41;100276.03;;;30.95;34.98
25510;BME280;13413;52.336;21.200;2023-06-26T10:13:38;100274.64;;;31.13;34.62
25510;BME280;13413;52.336;21.200;2023-06-26T10:16:41;100273.02;;;31.35;34.05
25510;BME280;13413;52.336;21.200;2023-06-26T10:19:37;100276.15;;;31.53;33.85
25510;BME280;13413;52.336;21.200;2023-06-26T10:22:36;100269.11;;;31.66;33.65
25510;BME280;13413;52.336;21.200;2023-06-26T10:25:39;100263.45;;;31.85;33.49
25510;BME280;13413;52.336;21.200;2023-06-26T10:31:40;100258.02;;;32.40;32.35
25510;BME280;13413;52.336;21.200;2023-06-26T10:34:37;100257.58;;;32.59;31.77
25510;BME280;13413;52.336;21.200;2023-06-26T10:37:47;100251.77;;;32.73;31.33
25510;BME280;13413;52.336;21.200;2023-06-26T10:40:45;100249.73;;;32.62;30.73
25510;BME280;13413;52.336;21.200;2023-06-26T10:47:05;100246.27;;;32.08;31.38
25510;BME280;13413;52.336;21.200;2023-06-26T10:50:17;100244.79;;;32.50;31.29
25510;BME280;13413;52.336;21.200;2023-06-26T10:53:14;100243.60;;;32.80;30.80
25510;BME280;13413;52.336;21.200;2023-06-26T10:56:15;100239.63;;;32.98;30.78
25510;BME280;13413;52.336;21.200;2023-06-26T10:59:19;100235.10;;;33.15;30.55
25510;BME280;13413;52.336;21.200;2023-06-26T11:02:15;100235.19;;;33.21;30.18
25510;BME280;13413;52.336;21.200;2023-06-26T11:05:25;100237.77;;;33.10;30.14
25510;BME280;13413;52.336;21.200;2023-06-26T11:08:20;100239.08;;;33.00;29.79
25510;BME280;13413;52.336;21.200;2023-06-26T11:11:21;100232.02;;;32.24;29.69
25510;BME280;13413;52.336;21.200;2023-06-26T11:14:24;100230.41;;;31.94;30.39
25510;BME280;13413;52.336;21.200;2023-06-26T11:17:20;100228.14;;;32.18;30.14
25510;BME280;13413;52.336;21.200;2023-06-26T11:20:15;100224.55;;;32.23;30.42
25510;BME280;13413;52.336;21.200;2023-06-26T11:23:10;100217.38;;;32.36;30.38
25510;BME280;13413;52.336;21.200;2023-06-26T11:26:19;100212.50;;;32.46;30.04
25510;BME280;13413;52.336;21.200;2023-06-26T11:29:14;100203.96;;;32.67;30.04
25510;BME280;13413;52.336;21.200;2023-06-26T11:32:08;100209.02;;;32.95;29.97
25510;BME280;13413;52.336;21.200;2023-06-26T11:35:02;100209.68;;;33.03;29.42
25510;BME280;13413;52.336;21.200;2023-06-26T11:37:58;100212.55;;;32.86;29.06
25510;BME280;13413;52.336;21.200;2023-06-26T11:46:20;100212.52;;;33.01;29.31
25510;BME280;13413;52.336;21.200;2023-06-26T11:49:17;100207.88;;;32.98;28.62
25510;BME280;13413;52.336;21.200;2023-06-26T11:52:11;100200.30;;;32.65;28.04
25510;BME280;13413;52.336;21.200;2023-06-26T12:00:30;100192.86;;;32.23;28.30
25510;BME280;13413;52.336;21.200;2023-06-26T12:03:24;100188.23;;;32.08;28.77
25510;BME280;13413;52.336;21.200;2023-06-26T12:06:25;100184.37;;;32.26;29.11
25510;BME280;13413;52.336;21.200;2023-06-26T12:09:20;100180.30;;;32.33;29.15
25510;BME280;13413;52.336;21.200;2023-06-26T12:12:16;100177.08;;;32.40;29.04
25510;BME280;13413;52.336;21.200;2023-06-26T12:15:17;100176.07;;;32.35;29.06
25510;BME280;13413;52.336;21.200;2023-06-26T12:18:18;100172.30;;;32.25;28.85
25510;BME280;13413;52.336;21.200;2023-06-26T12:25:43;100172.55;;;31.95;29.15
25510;BME280;13413;52.336;21.200;2023-06-26T12:28:37;100172.14;;;32.04;29.26
25510;BME280;13413;52.336;21.200;2023-06-26T12:31:40;100163.42;;;32.17;29.26
25510;BME280;13413;52.336;21.200;2023-06-26T12:34:40;100158.95;;;32.38;29.07
25510;BME280;13413;52.336;21.200;2023-06-26T12:37:38;100162.95;;;32.38;28.67
25510;BME280;13413;52.336;21.200;2023-06-26T12:40:45;100159.66;;;31.97;28.49
25510;BME280;13413;52.336;21.200;2023-06-26T12:43:39;100155.48;;;31.47;28.77
25510;BME280;13413;52.336;21.200;2023-06-26T12:46:39;100155.38;;;31.31;29.02
25510;BME280;13413;52.336;21.200;2023-06-26T12:49:34;100154.29;;;31.34;29.22
25510;BME280;13413;52.336;21.200;2023-06-26T12:52:27;100150.52;;;31.47;29.33
25510;BME280;13413;52.336;21.200;2023-06-26T12:55:26;100146.60;;;31.62;29.13
25510;BME280;13413;52.336;21.200;2023-06-26T12:58:19;100142.61;;;31.62;29.09
25510;BME280;13413;52.336;21.200;2023-06-26T13:01:19;100141.34;;;31.61;28.82
25510;BME280;13413;52.336;21.200;2023-06-26T13:04:12;100137.24;;;31.52;28.92
25510;BME280;13413;52.336;21.200;2023-06-26T13:07:08;100134.63;;;31.61;28.50
25510;BME280;13413;52.336;21.200;2023-06-26T13:10:01;100133.41;;;31.76;28.45
25510;BME280;13413;52.336;21.200;2023-06-26T13:12:54;100127.16;;;31.88;28.52
25510;BME280;13413;52.336;21.200;2023-06-26T13:15:47;100124.80;;;31.96;28.49
25510;BME280;13413;52.336;21.200;2023-06-26T13:18:40;100127.11;;;31.90;28.23
25510;BME280;13413;52.336;21.200;2023-06-26T13:21:34;100119.89;;;31.73;27.95
25510;BME280;13413;52.336;21.200;2023-06-26T13:26:37;100110.73;;;31.40;28.07
25510;BME280;13413;52.336;21.200;2023-06-26T13:29:30;100109.00;;;31.27;28.08
25510;BME280;13413;52.336;21.200;2023-06-26T13:32:23;100102.26;;;31.28;28.04
25510;BME280;13413;52.336;21.200;2023-06-26T13:35:23;100101.45;;;31.12;28.06
25510;BME280;13413;52.336;21.200;2023-06-26T13:38:16;100101.80;;;30.88;28.55
25510;BME280;13413;52.336;21.200;2023-06-26T13:41:16;100098.24;;;30.84;28.60
25510;BME280;13413;52.336;21.200;2023-06-26T13:44:16;100090.86;;;30.93;28.64
25510;BME280;13413;52.336;21.200;2023-06-26T13:50:21;100091.58;;;31.03;28.38
25510;BME280;13413;52.336;21.200;2023-06-26T13:53:17;100084.85;;;30.87;28.30
25510;BME280;13413;52.336;21.200;2023-06-26T13:56:09;100082.59;;;30.71;28.40
25510;BME280;13413;52.336;21.200;2023-06-26T14:05:10;100061.70;;;30.93;28.09
25510;BME280;13413;52.336;21.200;2023-06-26T14:08:05;100057.15;;;30.93;27.89
25510;BME280;13413;52.336;21.200;2023-06-26T14:11:05;100052.61;;;30.82;27.72
25510;BME280;13413;52.336;21.200;2023-06-26T14:13:58;100059.90;;;30.68;27.88
25510;BME280;13413;52.336;21.200;2023-06-26T14:16:52;100064.43;;;30.54;27.86
25510;BME280;13413;52.336;21.200;2023-06-26T14:19:52;100061.30;;;30.37;28.10
25510;BME280;13413;52.336;21.200;2023-06-26T14:22:45;100056.30;;;30.21;28.36
25510;BME280;13413;52.336;21.200;2023-06-26T14:25:45;100050.92;;;30.13;28.36
25510;BME280;13413;52.336;21.200;2023-06-26T14:28:38;100044.31;;;30.23;28.46
25510;BME280;13413;52.336;21.200;2023-06-26T14:31:38;100041.21;;;30.35;28.17
25510;BME280;13413;52.336;21.200;2023-06-26T14:34:38;100035.48;;;30.34;27.65
25510;BME280;13413;52.336;21.200;2023-06-26T14:37:32;100032.81;;;30.27;27.77
25510;BME280;13413;52.336;21.200;2023-06-26T14:40:32;100034.42;;;30.27;27.28
25510;BME280;13413;52.336;21.200;2023-06-26T14:43:25;100032.17;;;30.18;27.26
25510;BME280;13413;52.336;21.200;2023-06-26T14:46:18;100028.66;;;30.00;27.67
25510;BME280;13413;52.336;21.200;2023-06-26T14:49:11;100024.76;;;29.90;27.78
25510;BME280;13413;52.336;21.200;2023-06-26T14:52:05;100022.35;;;29.77;27.86
25510;BME280;13413;52.336;21.200;2023-06-26T14:54:58;100015.49;;;29.69;28.03
25510;BME280;13413;52.336;21.200;2023-06-26T14:57:51;100012.75;;;29.63;28.19
25510;BME280;13413;52.336;21.200;2023-06-26T15:00:51;100006.15;;;29.67;28.59
25510;BME280;13413;52.336;21.200;2023-06-26T15:03:44;100001.13;;;29.82;28.81
25510;BME280;13413;52.336;21.200;2023-06-26T15:10:51;99993.25;;;29.87;28.54
25510;BME280;13413;52.336;21.200;2023-06-26T15:13:45;99991.52;;;29.73;28.66
25510;BME280;13413;52.336;21.200;2023-06-26T15:16:39;99987.73;;;29.64;28.80
25510;BME280;13413;52.336;21.200;2023-06-26T15:21:36;99980.15;;;29.68;29.17
25510;BME280;13413;52.336;21.200;2023-06-26T15:24:31;99976.60;;;29.81;29.05
25510;BME280;13413;52.336;21.200;2023-06-26T15:27:24;99973.37;;;29.90;29.22
25510;BME280;13413;52.336;21.200;2023-06-26T15:30:17;99971.06;;;30.03;29.14
25510;BME280;13413;52.336;21.200;2023-06-26T15:35:33;99964.65;;;30.10;28.44
25510;BME280;13413;52.336;21.200;2023-06-26T15:38:26;99966.45;;;30.00;28.38
25510;BME280;13413;52.336;21.200;2023-06-26T15:41:25;99967.39;;;29.84;28.71
25510;BME280;13413;52.336;21.200;2023-06-26T15:44:25;99963.91;;;29.70;28.76
25510;BME280;13413;52.336;21.200;2023-06-26T15:47:26;99961.61;;;29.54;28.99
25510;BME280;13413;52.336;21.200;2023-06-26T16:02:27;99950.66;;;29.69;29.88
25510;BME280;13413;52.336;21.200;2023-06-26T16:05:27;99947.95;;;29.85;30.04
25510;BME280;13413;52.336;21.200;2023-06-26T16:08:20;99947.11;;;29.97;29.82
25510;BME280;13413;52.336;21.200;2023-06-26T16:11:12;99941.54;;;29.99;29.89
25510;BME280;13413;52.336;21.200;2023-06-26T16:14:05;99938.21;;;30.00;29.77
25510;BME280;13413;52.336;21.200;2023-06-26T16:16:58;99937.28;;;30.00;29.92
25510;BME280;13413;52.336;21.200;2023-06-26T16:19:58;99933.59;;;30.03;30.11
25510;BME280;13413;52.336;21.200;2023-06-26T16:22:51;99930.05;;;30.04;30.11
25510;BME280;13413;52.336;21.200;2023-06-26T16:25:44;99933.05;;;30.05;30.17
25510;BME280;13413;52.336;21.200;2023-06-26T16:28:37;99933.59;;;30.06;30.06
25510;BME280;13413;52.336;21.200;2023-06-26T16:31:36;99936.46;;;30.04;30.08
25510;BME280;13413;52.336;21.200;2023-06-26T16:34:36;99935.23;;;30.03;30.17
25510;BME280;13413;52.336;21.200;2023-06-26T16:37:28;99932.84;;;29.99;30.22
25510;BME280;13413;52.336;21.200;2023-06-26T16:40:29;99930.73;;;29.96;30.25
25510;BME280;13413;52.336;21.200;2023-06-26T16:43:21;99929.88;;;29.93;30.49
25510;BME280;13413;52.336;21.200;2023-06-26T16:46:14;99936.06;;;29.88;30.44
25510;BME280;13413;52.336;21.200;2023-06-26T16:49:07;99938.17;;;29.87;30.49
25510;BME280;13413;52.336;21.200;2023-06-26T16:52:00;99937.48;;;29.85;30.61
25510;BME280;13413;52.336;21.200;2023-06-26T16:54:53;99934.02;;;29.84;30.76
25510;BME280;13413;52.336;21.200;2023-06-26T16:57:46;99937.93;;;29.85;31.05
25510;BME280;13413;52.336;21.200;2023-06-26T17:00:39;99933.27;;;29.88;30.91
25510;BME280;13413;52.336;21.200;2023-06-26T17:03:39;99933.16;;;29.85;31.11